createdAt,value
2023-11-29T00:01:10.308Z,1.37
2023-11-29T00:03:44.790Z,1.20
2023-11-29T00:06:17.959Z,1.40
2023-11-29T00:08:55.352Z,1.33
2023-11-29T00:11:28.475Z,1.37
2023-11-29T00:14:01.649Z,1.27
2023-11-29T00:16:40.354Z,1.20
2023-11-29T00:19:13.403Z,1.47
2023-11-29T00:21:54.335Z,1.57
2023-11-29T00:24:34.841Z,1.37
2023-11-29T00:27:08.669Z,1.93
2023-11-29T00:29:48.932Z,1.20
2023-11-29T00:32:22.408Z,1.10
2023-11-29T00:34:55.557Z,1.30
2023-11-29T00:37:29.193Z,1.70
2023-11-29T00:40:02.306Z,1.30
2023-11-29T00:42:35.387Z,1.73
2023-11-29T00:45:08.688Z,1.03
2023-11-29T00:47:41.786Z,1.10
2023-11-29T00:50:20.328Z,1.10
2023-11-29T00:52:52.893Z,1.77
2023-11-29T00:55:33.015Z,1.10
2023-11-29T00:58:01.443Z,0.83
2023-11-29T01:00:34.507Z,1.10
2023-11-29T01:03:08.271Z,0.87
2023-11-29T01:05:46.760Z,1.10
2023-11-29T01:11:21.779Z,1.20
2023-11-29T01:14:08.490Z,1.00
2023-11-29T01:16:49.051Z,1.13
2023-11-29T01:19:28.655Z,1.07
2023-11-29T01:22:15.997Z,0.93
2023-11-29T01:25:03.455Z,1.50
2023-11-29T01:27:41.682Z,1.10
2023-11-29T01:30:20.793Z,0.90
2023-11-29T01:33:41.036Z,2.03
2023-11-29T01:36:34.386Z,1.00
2023-11-29T01:39:27.423Z,0.90
2023-11-29T01:45:23.294Z,1.40
2023-11-29T01:50:39.069Z,1.03
2023-11-29T01:53:20.532Z,0.97
2023-11-29T01:56:04.539Z,1.40
2023-11-29T01:58:39.713Z,1.20
2023-11-29T02:01:25.385Z,1.00
2023-11-29T02:04:02.278Z,1.10
2023-11-29T02:06:49.164Z,2.40
2023-11-29T02:12:25.648Z,0.70
2023-11-29T02:15:06.076Z,0.80
2023-11-29T02:17:39.170Z,0.70
2023-11-29T02:20:14.813Z,0.87
2023-11-29T02:22:52.088Z,0.80
2023-11-29T02:25:23.725Z,0.83
2023-11-29T02:27:56.708Z,0.93
2023-11-29T02:30:31.276Z,0.83
2023-11-29T02:33:04.731Z,0.93
2023-11-29T02:35:37.830Z,1.10
2023-11-29T02:38:13.256Z,0.90
2023-11-29T02:40:47.412Z,0.70
2023-11-29T02:43:20.501Z,1.07
2023-11-29T02:45:53.518Z,1.13
2023-11-29T02:48:26.943Z,0.90
2023-11-29T02:51:00.084Z,0.80
2023-11-29T02:53:33.323Z,1.00
2023-11-29T02:56:06.845Z,1.10
2023-11-29T02:58:40.226Z,0.80
2023-11-29T03:01:19.393Z,1.80
2023-11-29T03:03:53.028Z,0.70
2023-11-29T03:06:26.007Z,0.77
2023-11-29T03:08:59.028Z,0.90
2023-11-29T03:11:32.110Z,0.93
2023-11-29T03:14:05.248Z,1.00
2023-11-29T03:16:38.991Z,1.00
2023-11-29T03:19:16.121Z,1.03
2023-11-29T03:21:49.122Z,1.10
2023-11-29T03:24:22.496Z,0.90
2023-11-29T03:26:56.096Z,0.83
2023-11-29T03:29:29.259Z,1.00
2023-11-29T03:32:03.478Z,1.00
2023-11-29T03:34:36.641Z,1.03
2023-11-29T03:37:10.794Z,1.07
2023-11-29T03:39:45.536Z,0.70
2023-11-29T03:42:23.240Z,0.80
2023-11-29T03:44:56.359Z,1.00
2023-11-29T03:47:29.601Z,1.10
2023-11-29T03:50:02.895Z,1.27
2023-11-29T03:52:36.160Z,0.70
2023-11-29T03:55:09.937Z,0.80
2023-11-29T03:57:42.935Z,0.93
2023-11-29T04:00:17.183Z,0.80
2023-11-29T04:02:50.377Z,0.90
2023-11-29T04:05:23.521Z,1.77
2023-11-29T04:07:57.037Z,1.00
2023-11-29T04:10:31.034Z,1.33
2023-11-29T04:13:04.530Z,1.27
2023-11-29T04:15:37.573Z,1.23
2023-11-29T04:18:10.958Z,1.73
2023-11-29T04:20:44.293Z,2.23
2023-11-29T04:23:17.399Z,1.73
2023-11-29T04:25:50.629Z,2.00
2023-11-29T04:28:23.977Z,3.13
2023-11-29T04:30:56.939Z,2.20
2023-11-29T04:33:29.943Z,1.87
2023-11-29T04:36:03.209Z,2.40
2023-11-29T04:38:36.482Z,1.50
2023-11-29T04:41:09.808Z,1.43
2023-11-29T04:43:43.227Z,1.70
2023-11-29T04:46:17.536Z,1.20
2023-11-29T04:48:50.784Z,1.20
2023-11-29T04:51:24.002Z,1.00
2023-11-29T04:54:01.341Z,1.90
2023-11-29T04:56:34.576Z,1.20
2023-11-29T04:59:07.656Z,1.47
2023-11-29T05:01:40.835Z,1.20
2023-11-29T05:04:49.927Z,1.33
2023-11-29T05:07:22.964Z,1.30
2023-11-29T05:09:56.156Z,1.13
2023-11-29T05:12:29.305Z,0.93
2023-11-29T05:15:02.293Z,1.17
2023-11-29T05:17:35.597Z,1.10
2023-11-29T05:20:13.098Z,1.10
2023-11-29T05:22:46.261Z,1.30
2023-11-29T05:25:19.294Z,1.00
2023-11-29T05:27:52.561Z,1.40
2023-11-29T05:30:25.718Z,1.00
2023-11-29T05:32:58.884Z,1.20
2023-11-29T05:35:31.663Z,2.00
2023-11-29T05:38:05.019Z,1.30
2023-11-29T05:40:38.936Z,1.20
2023-11-29T05:43:11.639Z,1.30
2023-11-29T05:45:44.752Z,1.30
2023-11-29T05:48:17.793Z,1.03
2023-11-29T05:50:50.916Z,1.30
2023-11-29T05:53:25.111Z,1.57
2023-11-29T05:55:58.201Z,1.23
2023-11-29T05:58:31.005Z,1.37
2023-11-29T06:01:04.206Z,1.93
2023-11-29T06:03:37.230Z,1.20
2023-11-29T06:06:11.044Z,1.43
2023-11-29T06:08:44.093Z,1.43
2023-11-29T06:11:18.829Z,1.50
2023-11-29T06:13:51.327Z,1.13
2023-11-29T06:16:24.299Z,1.43
2023-11-29T06:18:57.769Z,1.10
2023-11-29T06:21:30.787Z,1.43
2023-11-29T06:24:04.003Z,1.10
2023-11-29T06:26:37.490Z,1.10
2023-11-29T06:29:11.761Z,1.53
2023-11-29T06:31:44.904Z,1.60
2023-11-29T06:34:18.087Z,1.43
2023-11-29T06:37:00.947Z,1.37
2023-11-29T06:39:37.883Z,1.67
2023-11-29T06:42:11.134Z,1.50
2023-11-29T06:44:44.251Z,1.77
2023-11-29T06:47:17.315Z,1.50
2023-11-29T06:49:50.333Z,1.00
2023-11-29T06:52:23.278Z,1.70
2023-11-29T06:54:56.276Z,2.70
2023-11-29T06:57:29.360Z,1.37
2023-11-29T07:00:02.345Z,1.23
2023-11-29T07:02:35.360Z,1.23
2023-11-29T07:05:08.935Z,3.00
2023-11-29T07:07:42.240Z,1.37
2023-11-29T07:10:15.398Z,1.90
2023-11-29T07:12:48.285Z,1.10
2023-11-29T07:15:22.415Z,1.43
2023-11-29T07:17:56.602Z,1.90
2023-11-29T07:20:37.568Z,1.90
2023-11-29T07:23:03.444Z,1.47
2023-11-29T07:25:36.693Z,1.43
2023-11-29T07:28:09.749Z,1.03
2023-11-29T07:30:42.762Z,1.33
2023-11-29T07:33:20.370Z,1.30
2023-11-29T07:35:53.534Z,1.20
2023-11-29T07:38:26.582Z,2.40
2023-11-29T07:40:59.509Z,1.37
2023-11-29T07:43:32.580Z,1.20
2023-11-29T07:46:06.981Z,1.70
2023-11-29T07:48:40.496Z,1.30
2023-11-29T07:51:13.568Z,1.57
2023-11-29T07:53:48.091Z,1.87
2023-11-29T07:56:21.142Z,1.83
2023-11-29T07:58:53.967Z,1.50
2023-11-29T08:01:31.297Z,1.53
2023-11-29T08:04:04.245Z,2.10
2023-11-29T08:06:38.483Z,2.13
2023-11-29T08:09:12.599Z,1.70
2023-11-29T08:11:46.791Z,2.00
2023-11-29T08:14:19.876Z,1.57
2023-11-29T08:16:52.993Z,1.30
2023-11-29T08:19:25.718Z,1.83
2023-11-29T08:21:58.880Z,1.27
2023-11-29T08:24:32.133Z,2.03
2023-11-29T08:27:05.265Z,1.30
2023-11-29T08:29:37.979Z,1.93
2023-11-29T08:32:12.624Z,1.03
2023-11-29T08:34:45.584Z,1.10
2023-11-29T08:37:19.716Z,2.83
2023-11-29T08:39:52.694Z,1.17
2023-11-29T08:42:25.686Z,1.60
2023-11-29T08:45:01.078Z,1.30
2023-11-29T08:47:34.209Z,1.23
2023-11-29T08:50:08.315Z,1.70
2023-11-29T08:52:42.510Z,1.50
2023-11-29T08:55:15.523Z,1.53
2023-11-29T08:57:53.988Z,2.00
2023-11-29T09:00:24.010Z,1.67
2023-11-29T09:02:58.221Z,1.53
2023-11-29T09:05:31.466Z,1.63
2023-11-29T09:08:04.699Z,1.10
2023-11-29T09:10:38.054Z,1.53
2023-11-29T09:13:13.889Z,1.70
2023-11-29T09:15:46.896Z,2.10
2023-11-29T09:18:20.058Z,1.37
2023-11-29T09:20:53.048Z,1.87
2023-11-29T09:23:26.335Z,2.10
2023-11-29T09:26:02.447Z,1.60
2023-11-29T09:28:35.782Z,1.57
2023-11-29T09:31:11.504Z,1.80
2023-11-29T09:33:45.164Z,1.40
2023-11-29T09:36:19.048Z,1.63
2023-11-29T09:38:52.022Z,1.60
2023-11-29T09:41:25.936Z,1.40
2023-11-29T09:44:06.182Z,1.40
2023-11-29T09:46:40.929Z,1.50
2023-11-29T09:49:15.333Z,1.60
2023-11-29T09:51:48.312Z,1.50
2023-11-29T09:54:21.228Z,1.50
2023-11-29T09:56:54.241Z,1.53
2023-11-29T09:59:27.871Z,1.23
2023-11-29T10:02:01.013Z,1.30
2023-11-29T10:04:35.021Z,1.60
2023-11-29T10:07:08.993Z,1.70
2023-11-29T10:09:43.010Z,1.80
2023-11-29T10:12:16.985Z,2.87
2023-11-29T10:14:55.814Z,3.40
2023-11-29T10:17:24.392Z,2.03
2023-11-29T10:20:01.098Z,2.00
2023-11-29T10:22:35.043Z,2.23
2023-11-29T10:25:22.911Z,1.60
2023-11-29T10:27:55.915Z,1.47
2023-11-29T10:30:28.998Z,1.40
2023-11-29T10:33:03.501Z,1.63
2023-11-29T10:35:37.655Z,2.20
2023-11-29T10:38:16.365Z,1.70
2023-11-29T10:40:54.596Z,1.50
2023-11-29T10:43:32.969Z,1.73
2023-11-29T10:46:14.179Z,1.70
2023-11-29T10:48:49.018Z,2.10
2023-11-29T10:51:23.025Z,1.87
2023-11-29T10:53:57.531Z,2.27
2023-11-29T10:56:31.979Z,2.03
2023-11-29T10:59:13.757Z,2.23
2023-11-29T11:01:47.469Z,1.90
2023-11-29T11:04:22.045Z,2.07
2023-11-29T11:06:55.304Z,1.53
2023-11-29T11:09:45.130Z,1.70
2023-11-29T11:12:20.335Z,1.90
2023-11-29T11:14:55.656Z,1.73
2023-11-29T11:17:29.880Z,1.50
2023-11-29T11:20:05.056Z,1.40
2023-11-29T11:22:46.547Z,1.63
2023-11-29T11:25:22.543Z,1.57
2023-11-29T11:27:56.639Z,2.50
2023-11-29T11:30:31.325Z,1.40
2023-11-29T11:33:04.822Z,1.10
2023-11-29T11:35:41.842Z,1.57
2023-11-29T11:38:15.672Z,1.37
2023-11-29T11:40:48.846Z,1.70
2023-11-29T11:43:22.525Z,1.20
2023-11-29T11:45:56.550Z,1.30
2023-11-29T11:48:29.948Z,1.43
2023-11-29T11:51:04.499Z,1.10
2023-11-29T11:53:46.798Z,2.30
2023-11-29T11:56:24.502Z,1.40
2023-11-29T11:58:58.728Z,1.33
2023-11-29T12:01:33.395Z,1.90
2023-11-29T12:04:08.072Z,1.23
2023-11-29T12:06:40.957Z,1.50
2023-11-29T12:09:15.153Z,1.50
2023-11-29T12:11:47.949Z,1.33
2023-11-29T12:14:23.858Z,1.30
2023-11-29T12:16:59.829Z,1.70
2023-11-29T12:19:33.321Z,2.00
2023-11-29T12:22:09.675Z,1.43
2023-11-29T12:24:48.669Z,1.77
2023-11-29T12:27:23.028Z,2.23
2023-11-29T12:29:57.341Z,1.57
2023-11-29T12:32:35.001Z,1.60
2023-11-29T12:35:09.554Z,1.73
2023-11-29T12:37:48.155Z,1.60
2023-11-29T12:40:23.039Z,1.47
2023-11-29T12:42:56.069Z,2.07
2023-11-29T12:45:28.842Z,1.50
2023-11-29T12:48:05.984Z,1.60
2023-11-29T12:50:39.252Z,1.30
2023-11-29T12:53:12.126Z,1.60
2023-11-29T12:55:45.583Z,1.80
2023-11-29T12:58:18.764Z,1.93
2023-11-29T13:00:51.936Z,1.87
2023-11-29T13:03:25.011Z,2.13
2023-11-29T13:05:58.560Z,2.27
2023-11-29T13:08:32.035Z,2.07
2023-11-29T13:11:05.361Z,1.50
2023-11-29T13:13:39.052Z,1.63
2023-11-29T13:16:13.874Z,1.30
2023-11-29T13:18:47.084Z,1.27
2023-11-29T13:21:20.251Z,1.30
2023-11-29T13:23:54.211Z,1.33
2023-11-29T13:26:27.233Z,1.20
2023-11-29T13:29:00.230Z,2.40
2023-11-29T13:31:33.992Z,1.63
2023-11-29T13:34:06.994Z,1.40
2023-11-29T13:36:40.031Z,1.67
2023-11-29T13:39:14.093Z,1.67
2023-11-29T13:41:47.353Z,1.23
2023-11-29T13:44:21.066Z,1.53
2023-11-29T13:46:53.815Z,2.50
2023-11-29T13:49:26.807Z,1.77
2023-11-29T13:52:07.929Z,1.97
2023-11-29T13:54:34.408Z,1.50
2023-11-29T13:57:07.514Z,1.83
2023-11-29T13:59:40.925Z,2.53
2023-11-29T14:02:18.381Z,1.30
2023-11-29T14:04:49.844Z,1.53
2023-11-29T14:07:24.370Z,1.70
2023-11-29T14:09:57.203Z,2.00
2023-11-29T14:12:30.204Z,1.67
2023-11-29T14:15:03.386Z,1.50
2023-11-29T14:17:36.889Z,1.57
2023-11-29T14:20:13.067Z,1.10
2023-11-29T14:22:46.158Z,1.30
2023-11-29T14:25:19.471Z,1.87
2023-11-29T14:27:57.713Z,1.27
2023-11-29T14:30:26.831Z,1.67
2023-11-29T14:33:00.143Z,1.40
2023-11-29T14:35:33.466Z,1.40
2023-11-29T14:38:06.656Z,1.67
2023-11-29T14:40:39.653Z,1.20
2023-11-29T14:43:19.731Z,1.13
2023-11-29T14:45:52.854Z,1.67
2023-11-29T14:48:26.771Z,1.27
2023-11-29T14:51:00.329Z,1.90
2023-11-29T14:53:34.426Z,1.50
2023-11-29T14:56:07.460Z,1.47
2023-11-29T14:58:40.645Z,1.63
2023-11-29T15:01:14.052Z,0.93
2023-11-29T15:03:47.322Z,0.97
2023-11-29T15:06:20.343Z,1.33
2023-11-29T15:08:53.384Z,1.20
2023-11-29T15:11:26.461Z,1.73
2023-11-29T15:13:59.382Z,1.20
2023-11-29T15:16:32.404Z,2.63
2023-11-29T15:19:05.692Z,1.60
2023-11-29T15:21:39.037Z,2.07
2023-11-29T15:24:16.630Z,1.70
2023-11-29T15:26:51.092Z,1.63
2023-11-29T15:29:25.233Z,1.50
2023-11-29T15:32:03.735Z,1.20
2023-11-29T15:34:37.046Z,1.50
2023-11-29T15:37:10.236Z,1.67
2023-11-29T15:39:43.316Z,2.10
2023-11-29T15:42:16.361Z,2.17
2023-11-29T15:44:49.398Z,2.40
2023-11-29T15:47:22.517Z,3.17
2023-11-29T15:49:55.713Z,2.80
2023-11-29T15:52:28.990Z,3.70
2023-11-29T15:55:06.326Z,2.53
2023-11-29T15:57:39.371Z,3.00
2023-11-29T16:00:14.294Z,3.00
2023-11-29T16:02:47.396Z,3.20
2023-11-29T16:05:20.781Z,3.33
2023-11-29T16:07:53.979Z,3.10
2023-11-29T16:10:27.057Z,3.30
2023-11-29T16:13:00.493Z,3.20
2023-11-29T16:15:33.304Z,3.17
2023-11-29T16:18:06.571Z,3.10
2023-11-29T16:20:39.538Z,3.97
2023-11-29T16:23:12.615Z,3.30
2023-11-29T16:25:45.682Z,3.97
2023-11-29T16:28:18.681Z,4.60
2023-11-29T16:30:52.695Z,3.37
2023-11-29T16:33:26.014Z,3.40
2023-11-29T16:35:59.285Z,2.63
2023-11-29T16:38:32.521Z,2.30
2023-11-29T16:41:05.701Z,1.73
2023-11-29T16:43:38.758Z,1.77
2023-11-29T16:46:12.139Z,2.00
2023-11-29T16:48:45.422Z,1.50
2023-11-29T16:51:18.749Z,1.70
2023-11-29T16:53:51.713Z,1.67
2023-11-29T16:56:24.551Z,1.73
2023-11-29T16:58:57.398Z,1.10
2023-11-29T17:01:30.490Z,1.77
2023-11-29T17:04:07.605Z,1.30
2023-11-29T17:06:40.804Z,2.23
2023-11-29T17:09:13.854Z,1.40
2023-11-29T17:11:48.109Z,1.70
2023-11-29T17:14:21.145Z,1.40
2023-11-29T17:16:54.211Z,1.77
2023-11-29T17:19:27.420Z,1.53
2023-11-29T17:22:00.550Z,1.70
2023-11-29T17:24:33.484Z,1.63
2023-11-29T17:27:07.483Z,1.33
2023-11-29T17:29:40.812Z,1.47
2023-11-29T17:32:13.994Z,1.67
2023-11-29T17:34:51.163Z,1.33
2023-11-29T17:37:24.347Z,1.57
2023-11-29T17:39:57.426Z,1.87
2023-11-29T17:42:30.341Z,1.20
2023-11-29T17:45:03.431Z,1.30
2023-11-29T17:47:36.892Z,1.70
2023-11-29T17:50:10.717Z,1.70
2023-11-29T17:52:44.611Z,1.67
2023-11-29T17:55:17.785Z,1.50
2023-11-29T17:57:51.022Z,1.10
2023-11-29T18:00:25.138Z,2.80
2023-11-29T18:02:58.557Z,1.13
2023-11-29T18:05:31.781Z,1.00
2023-11-29T18:08:04.826Z,1.53
2023-11-29T18:10:58.594Z,1.50
2023-11-29T18:13:32.878Z,1.23
2023-11-29T18:16:07.088Z,1.33
2023-11-29T18:18:42.234Z,1.10
2023-11-29T18:21:15.459Z,1.40
2023-11-29T18:23:53.052Z,1.00
2023-11-29T18:26:25.987Z,1.27
2023-11-29T18:28:59.959Z,1.30
2023-11-29T18:31:32.943Z,1.57
2023-11-29T18:34:06.608Z,1.57
2023-11-29T18:36:43.547Z,1.60
2023-11-29T18:39:16.836Z,1.80
2023-11-29T18:41:50.154Z,1.60
2023-11-29T18:44:23.138Z,1.30
2023-11-29T18:46:56.166Z,1.10
2023-11-29T18:49:29.471Z,1.80
2023-11-29T18:52:02.691Z,1.10
2023-11-29T18:54:35.717Z,1.17
2023-11-29T18:57:08.856Z,1.03
2023-11-29T18:59:43.005Z,1.43
2023-11-29T19:02:18.456Z,1.67
2023-11-29T19:04:51.332Z,1.00
2023-11-29T19:07:24.493Z,1.63
2023-11-29T19:09:57.461Z,1.00
2023-11-29T19:12:30.442Z,1.10
2023-11-29T19:15:03.438Z,1.00
2023-11-29T19:17:36.346Z,1.13
2023-11-29T19:20:09.926Z,1.40
2023-11-29T19:22:43.596Z,1.33
2023-11-29T19:25:16.605Z,1.37
2023-11-29T19:27:49.672Z,1.33
2023-11-29T19:30:22.747Z,1.83
2023-11-29T19:32:56.035Z,1.23
2023-11-29T19:38:03.652Z,1.40
2023-11-29T19:40:36.575Z,3.60
2023-11-29T19:43:13.811Z,1.33
2023-11-29T19:45:46.857Z,1.20
2023-11-29T19:48:20.420Z,1.30
2023-11-29T19:50:54.259Z,1.00
2023-11-29T19:53:27.380Z,1.30
2023-11-29T19:56:00.346Z,0.83
2023-11-29T19:58:33.322Z,0.90
2023-11-29T20:01:06.459Z,1.57
2023-11-29T20:03:39.650Z,1.10
2023-11-29T20:06:14.318Z,1.27
2023-11-29T20:08:47.142Z,0.90
2023-11-29T20:11:20.164Z,1.20
2023-11-29T20:13:52.955Z,1.03
2023-11-29T20:16:25.814Z,1.13
2023-11-29T20:18:59.605Z,1.10
2023-11-29T20:21:32.562Z,0.97
2023-11-29T20:24:07.618Z,1.20
2023-11-29T20:26:39.699Z,2.80
2023-11-29T20:29:12.693Z,1.67
2023-11-29T20:31:45.778Z,0.90
2023-11-29T20:34:29.747Z,1.20
2023-11-29T20:36:52.729Z,2.13
2023-11-29T20:39:25.663Z,0.80
2023-11-29T20:41:58.452Z,1.30
2023-11-29T20:44:31.973Z,1.20
2023-11-29T20:47:06.338Z,1.00
2023-11-29T20:49:39.527Z,1.10
2023-11-29T20:52:12.401Z,1.00
2023-11-29T20:54:45.369Z,1.37
2023-11-29T20:57:18.219Z,1.00
2023-11-29T20:59:51.208Z,1.20
2023-11-29T21:02:24.123Z,1.10
2023-11-29T21:04:57.333Z,1.47
2023-11-29T21:07:30.287Z,1.57
2023-11-29T21:10:03.540Z,1.30
2023-11-29T21:12:36.335Z,1.13
2023-11-29T21:15:09.861Z,1.10
2023-11-29T21:17:43.148Z,1.00
2023-11-29T21:20:16.685Z,0.80
2023-11-29T21:22:49.786Z,1.00
2023-11-29T21:25:22.879Z,0.93
2023-11-29T21:27:56.281Z,1.20
2023-11-29T21:30:29.257Z,1.60
2023-11-29T21:33:03.060Z,1.20
2023-11-29T21:35:36.035Z,1.17
2023-11-29T21:38:09.234Z,1.17
2023-11-29T21:40:45.185Z,1.17
2023-11-29T21:43:19.399Z,1.10
2023-11-29T21:45:52.701Z,1.20
2023-11-29T21:48:28.912Z,1.07
2023-11-29T21:51:02.757Z,1.00
2023-11-29T21:53:36.781Z,1.60
2023-11-29T21:56:11.083Z,0.90
2023-11-29T21:58:44.254Z,1.53
2023-11-29T22:01:24.147Z,1.00
2023-11-29T22:03:57.081Z,1.27
2023-11-29T22:06:29.861Z,0.80
2023-11-29T22:09:02.702Z,1.00
2023-11-29T22:11:36.812Z,1.10
2023-11-29T22:14:09.922Z,0.90
2023-11-29T22:16:43.272Z,1.60
2023-11-29T22:19:16.505Z,1.30
2023-11-29T22:21:49.346Z,1.33
2023-11-29T22:24:22.416Z,1.77
2023-11-29T22:26:57.842Z,1.37
2023-11-29T22:29:34.396Z,1.30
2023-11-29T22:32:07.444Z,1.77
2023-11-29T22:34:40.618Z,1.50
2023-11-29T22:37:13.577Z,1.20
2023-11-29T22:39:46.491Z,1.33
2023-11-29T22:42:19.379Z,1.50
2023-11-29T22:44:53.755Z,1.30
2023-11-29T22:47:28.085Z,1.33
2023-11-29T22:50:00.918Z,1.17
2023-11-29T22:52:33.899Z,1.60
2023-11-29T22:55:07.252Z,1.17
2023-11-29T22:57:40.338Z,1.00
2023-11-29T23:00:14.147Z,1.30
2023-11-29T23:02:48.289Z,1.10
2023-11-29T23:05:21.176Z,0.90
2023-11-29T23:07:54.217Z,1.10
2023-11-29T23:10:27.451Z,1.10
2023-11-29T23:13:00.450Z,0.83
2023-11-29T23:15:33.762Z,1.50
2023-11-29T23:18:07.724Z,2.07
2023-11-29T23:20:40.772Z,1.17
2023-11-29T23:23:17.785Z,1.57
2023-11-29T23:25:47.396Z,1.20
2023-11-29T23:28:24.590Z,1.23
2023-11-29T23:30:57.618Z,0.90
2023-11-29T23:33:30.725Z,1.10
2023-11-29T23:36:03.828Z,1.20
2023-11-29T23:38:38.254Z,1.80
2023-11-29T23:41:11.720Z,1.37
2023-11-29T23:43:44.503Z,1.83
2023-11-29T23:46:17.655Z,1.53
2023-11-29T23:48:50.453Z,1.20
2023-11-29T23:51:23.420Z,1.53
2023-11-29T23:53:56.369Z,1.13
2023-11-29T23:56:29.220Z,1.83
2023-11-29T23:59:02.133Z,1.20
